PWSweather.com
Personal Weather Stations
Station Observations
IABRUZZI4
Tetto, TeramoIT 64020

TettoTeramoIT 64020

Lat: 42.629613, Lon: 13.863575

Elevation: 120

Station Type: Wmr928

http://www.castelnuovovomanometeo.it

Latest ConditionsUpdated 3:15:06 PM GMT+01:01 Sunday, Jul 21, 2019
Currently Today's Max Today's Min Today's Average
Temperature 87.2°F30.7°C 89.7°F32.1°C 69.9°F21.1°C 79.4°F26.3°C
Dew Point 30.3°F-0.9°C 44.2°F6.8°C 28.2°F-2.1°C 36.7°F2.6°C
Winds 7.0 mph E11.3 kmh E 10.0 mph -16.1 kmh - - 4.7 mph 7.6 kmh
Wind Gusts 9.0 mph14.5 kmh 15.0 mph24.1 kmh - -
Humidity 13% 38% 12% 24%
Pressure 29.99 in1015.6 mb 30.03 in1016.9 mb 29.99 in1015.6 mb -
Hour Temp Dew Point Humidity Winds Wind Gusts Pressure Precip Precip Rate Daily Precip Total
03:15 PM 87.2°F30.7°C 30.3°F-0.9°C 13% 7.0 mph E11.3 kmh E 9.0 mph14.5 kmh 29.99 in1015.6 mb 0.00 in0.0 mm 0.00 in0.0 mm 0.00 in0.0 mm
03:10 PM 87.2°F30.7°C 30.3°F-0.9°C 13% 6.0 mph E9.7 kmh E 10.0 mph16.1 kmh 29.99 in1015.6 mb 0.00 in0.0 mm 0.00 in0.0 mm 0.00 in0.0 mm
03:05 PM 87.4°F30.8°C 30.5°F-0.8°C 13% 8.0 mph E12.9 kmh E 10.0 mph16.1 kmh 29.99 in1015.6 mb 0.00 in0.0 mm 0.00 in0.0 mm 0.00 in0.0 mm
03:00 PM 87.4°F30.8°C 30.5°F-0.8°C 13% 8.0 mph E12.9 kmh E 10.0 mph16.1 kmh 29.99 in1015.6 mb 0.00 in0.0 mm 0.00 in0.0 mm 0.00 in0.0 mm
02:55 PM 87.6°F30.9°C 30.6°F-0.8°C 13% 9.0 mph ENE14.5 kmh ENE 12.0 mph19.3 kmh 29.99 in1015.6 mb 0.00 in0.0 mm 0.00 in0.0 mm 0.00 in0.0 mm
02:50 PM 87.8°F31.0°C 30.8°F-0.7°C 13% 6.0 mph E9.7 kmh E 10.0 mph16.1 kmh 29.99 in1015.6 mb 0.00 in0.0 mm 0.00 in0.0 mm 0.00 in0.0 mm
02:45 PM 87.6°F30.9°C 30.6°F-0.8°C 13% 7.0 mph E11.3 kmh E 10.0 mph16.1 kmh 29.99 in1015.6 mb 0.00 in0.0 mm 0.00 in0.0 mm 0.00 in0.0 mm
02:40 PM 87.6°F30.9°C 30.6°F-0.8°C 13% 8.0 mph ENE12.9 kmh ENE 10.0 mph16.1 kmh 29.99 in1015.6 mb 0.00 in0.0 mm 0.00 in0.0 mm 0.00 in0.0 mm
02:35 PM 87.6°F30.9°C 30.6°F-0.8°C 13% 7.0 mph ENE11.3 kmh ENE 11.0 mph17.7 kmh 29.99 in1015.6 mb 0.00 in0.0 mm 0.00 in0.0 mm 0.00 in0.0 mm
02:30 PM 87.4°F30.8°C 30.5°F-0.8°C 13% 8.0 mph E12.9 kmh E 12.0 mph19.3 kmh 29.99 in1015.6 mb 0.00 in0.0 mm 0.00 in0.0 mm 0.00 in0.0 mm
02:25 PM 87.8°F31.0°C 30.8°F-0.7°C 13% 9.0 mph E14.5 kmh E 13.0 mph20.9 kmh 29.99 in1015.6 mb 0.00 in0.0 mm 0.00 in0.0 mm 0.00 in0.0 mm
02:20 PM 87.9°F31.1°C 30.9°F-0.6°C 13% 6.0 mph E9.7 kmh E 13.0 mph20.9 kmh 29.99 in1015.6 mb 0.00 in0.0 mm 0.00 in0.0 mm 0.00 in0.0 mm
02:15 PM 87.9°F31.1°C 30.9°F-0.6°C 13% 10.0 mph E16.1 kmh E 12.0 mph19.3 kmh 29.99 in1015.6 mb 0.00 in0.0 mm 0.00 in0.0 mm 0.00 in0.0 mm
02:10 PM 88.1°F31.2°C 31.0°F-0.6°C 13% 7.0 mph ESE11.3 kmh ESE 12.0 mph19.3 kmh 29.99 in1015.6 mb 0.00 in0.0 mm 0.00 in0.0 mm 0.00 in0.0 mm
02:05 PM 87.9°F31.1°C 30.9°F-0.6°C 13% 8.0 mph ESE12.9 kmh ESE 14.0 mph22.5 kmh 29.99 in1015.6 mb 0.00 in0.0 mm 0.00 in0.0 mm 0.00 in0.0 mm
02:00 PM 88.3°F31.3°C 31.2°F-0.4°C 13% 9.0 mph E14.5 kmh E 12.0 mph19.3 kmh 29.99 in1015.6 mb 0.00 in0.0 mm 0.00 in0.0 mm 0.00 in0.0 mm
01:55 PM 88.5°F31.4°C 31.3°F-0.4°C 13% 8.0 mph E12.9 kmh E 12.0 mph19.3 kmh 29.99 in1015.6 mb 0.00 in0.0 mm 0.00 in0.0 mm 0.00 in0.0 mm
01:50 PM 88.5°F31.4°C 31.3°F-0.4°C 13% 9.0 mph NE14.5 kmh NE 12.0 mph19.3 kmh 29.99 in1015.6 mb 0.00 in0.0 mm 0.00 in0.0 mm 0.00 in0.0 mm
01:45 PM 88.5°F31.4°C 31.3°F-0.4°C 13% 10.0 mph ESE16.1 kmh ESE 13.0 mph20.9 kmh 29.99 in1015.6 mb 0.00 in0.0 mm 0.00 in0.0 mm 0.00 in0.0 mm
01:40 PM 88.8°F31.6°C 31.6°F-0.2°C 13% 9.0 mph E14.5 kmh E 14.0 mph22.5 kmh 29.99 in1015.6 mb 0.00 in0.0 mm 0.00 in0.0 mm 0.00 in0.0 mm
01:35 PM 89.0°F31.7°C 31.7°F-0.2°C 13% 8.0 mph E12.9 kmh E 12.0 mph19.3 kmh 29.99 in1015.6 mb 0.00 in0.0 mm 0.00 in0.0 mm 0.00 in0.0 mm
01:30 PM 89.0°F31.7°C 31.7°F-0.2°C 13% 9.0 mph E14.5 kmh E 12.0 mph19.3 kmh 29.99 in1015.6 mb 0.00 in0.0 mm 0.00 in0.0 mm 0.00 in0.0 mm
01:25 PM 88.8°F31.6°C 31.6°F-0.2°C 13% 7.0 mph NE11.3 kmh NE 12.0 mph19.3 kmh 29.99 in1015.6 mb 0.00 in0.0 mm 0.00 in0.0 mm 0.00 in0.0 mm
01:20 PM 88.8°F31.6°C 31.6°F-0.2°C 13% 10.0 mph ENE16.1 kmh ENE 14.0 mph22.5 kmh 29.99 in1015.6 mb 0.00 in0.0 mm 0.00 in0.0 mm 0.00 in0.0 mm
01:15 PM 89.2°F31.8°C 31.9°F-0.1°C 13% 9.0 mph NE14.5 kmh NE 13.0 mph20.9 kmh 29.99 in1015.6 mb 0.00 in0.0 mm 0.00 in0.0 mm 0.00 in0.0 mm
01:10 PM 89.4°F31.9°C 32.0°F0.0°C 13% 9.0 mph ENE14.5 kmh ENE 13.0 mph20.9 kmh 29.99 in1015.6 mb 0.00 in0.0 mm 0.00 in0.0 mm 0.00 in0.0 mm
01:05 PM 89.2°F31.8°C 31.9°F-0.1°C 13% 10.0 mph NE16.1 kmh NE 15.0 mph24.1 kmh 29.99 in1015.6 mb 0.00 in0.0 mm 0.00 in0.0 mm 0.00 in0.0 mm
01:00 PM 89.0°F31.7°C 31.7°F-0.2°C 13% 8.0 mph E12.9 kmh E 13.0 mph20.9 kmh 29.99 in1015.6 mb 0.00 in0.0 mm 0.00 in0.0 mm 0.00 in0.0 mm
12:55 PM 89.2°F31.8°C 31.9°F-0.1°C 13% 8.0 mph ESE12.9 kmh ESE 11.0 mph17.7 kmh 29.99 in1015.6 mb 0.00 in0.0 mm 0.00 in0.0 mm 0.00 in0.0 mm
12:50 PM 89.0°F31.7°C 31.7°F-0.2°C 13% 5.0 mph ESE8.0 kmh ESE 14.0 mph22.5 kmh 29.99 in1015.6 mb 0.00 in0.0 mm 0.00 in0.0 mm 0.00 in0.0 mm
12:45 PM 89.0°F31.7°C 31.7°F-0.2°C 13% 9.0 mph E14.5 kmh E 14.0 mph22.5 kmh 29.99 in1015.6 mb 0.00 in0.0 mm 0.00 in0.0 mm 0.00 in0.0 mm
12:40 PM 89.4°F31.9°C 32.0°F0.0°C 13% 8.0 mph E12.9 kmh E 10.0 mph16.1 kmh 29.99 in1015.6 mb 0.00 in0.0 mm 0.00 in0.0 mm 0.00 in0.0 mm
12:35 PM 89.0°F31.7°C 31.7°F-0.2°C 13% 8.0 mph NE12.9 kmh NE 12.0 mph19.3 kmh 29.99 in1015.6 mb 0.00 in0.0 mm 0.00 in0.0 mm 0.00 in0.0 mm
12:30 PM 88.3°F31.3°C 31.2°F-0.4°C 13% 6.0 mph ENE9.7 kmh ENE 13.0 mph20.9 kmh 29.99 in1015.6 mb 0.00 in0.0 mm 0.00 in0.0 mm 0.00 in0.0 mm
12:25 PM 88.3°F31.3°C 31.2°F-0.4°C 13% 8.0 mph E12.9 kmh E 13.0 mph20.9 kmh 29.99 in1015.6 mb 0.00 in0.0 mm 0.00 in0.0 mm 0.00 in0.0 mm
12:20 PM 88.7°F31.5°C 31.5°F-0.3°C 13% 8.0 mph E12.9 kmh E 13.0 mph20.9 kmh 29.99 in1015.6 mb 0.00 in0.0 mm 0.00 in0.0 mm 0.00 in0.0 mm
12:15 PM 88.7°F31.5°C 31.5°F-0.3°C 13% 8.0 mph ENE12.9 kmh ENE 10.0 mph16.1 kmh 29.99 in1015.6 mb 0.00 in0.0 mm 0.00 in0.0 mm 0.00 in0.0 mm
12:10 PM 88.5°F31.4°C 31.3°F-0.4°C 13% 8.0 mph E12.9 kmh E 11.0 mph17.7 kmh 29.99 in1015.6 mb 0.00 in0.0 mm 0.00 in0.0 mm 0.00 in0.0 mm
12:05 PM 88.7°F31.5°C 31.5°F-0.3°C 13% 6.0 mph E9.7 kmh E 10.0 mph16.1 kmh 29.99 in1015.6 mb 0.00 in0.0 mm 0.00 in0.0 mm 0.00 in0.0 mm
12:00 PM 88.7°F31.5°C 31.5°F-0.3°C 13% 8.0 mph E12.9 kmh E 10.0 mph16.1 kmh 29.99 in1015.6 mb 0.00 in0.0 mm 0.00 in0.0 mm 0.00 in0.0 mm
11:55 AM 89.2°F31.8°C 31.9°F-0.1°C 13% 9.0 mph E14.5 kmh E 12.0 mph19.3 kmh 29.99 in1015.6 mb 0.00 in0.0 mm 0.00 in0.0 mm 0.00 in0.0 mm
11:50 AM 89.4°F31.9°C 32.0°F0.0°C 13% 6.0 mph ENE9.7 kmh ENE 10.0 mph16.1 kmh 29.99 in1015.6 mb 0.00 in0.0 mm 0.00 in0.0 mm 0.00 in0.0 mm
11:45 AM 89.2°F31.8°C 31.9°F-0.1°C 13% 6.0 mph ENE9.7 kmh ENE 10.0 mph16.1 kmh 29.99 in1015.6 mb 0.00 in0.0 mm 0.00 in0.0 mm 0.00 in0.0 mm
11:40 AM 89.6°F32.0°C 30.2°F-1.0°C 12% 7.0 mph E11.3 kmh E 10.0 mph16.1 kmh 29.99 in1015.6 mb 0.00 in0.0 mm 0.00 in0.0 mm 0.00 in0.0 mm
11:35 AM 89.4°F31.9°C 32.0°F0.0°C 13% 6.0 mph NNE9.7 kmh NNE 10.0 mph16.1 kmh 29.99 in1015.6 mb 0.00 in0.0 mm 0.00 in0.0 mm 0.00 in0.0 mm
11:30 AM 89.6°F32.0°C 30.2°F-1.0°C 12% 6.0 mph NE9.7 kmh NE 8.0 mph12.9 kmh 30.02 in1016.6 mb 0.00 in0.0 mm 0.00 in0.0 mm 0.00 in0.0 mm
11:25 AM 89.7°F32.1°C 30.3°F-0.9°C 12% 7.0 mph ESE11.3 kmh ESE 8.0 mph12.9 kmh 30.02 in1016.6 mb 0.00 in0.0 mm 0.00 in0.0 mm 0.00 in0.0 mm
11:20 AM 89.6°F32.0°C 30.2°F-1.0°C 12% 4.0 mph E6.4 kmh E 7.0 mph11.3 kmh 30.02 in1016.6 mb 0.00 in0.0 mm 0.00 in0.0 mm 0.00 in0.0 mm
11:15 AM 89.7°F32.1°C 30.3°F-0.9°C 12% 5.0 mph ESE8.0 kmh ESE 8.0 mph12.9 kmh 30.02 in1016.6 mb 0.00 in0.0 mm 0.00 in0.0 mm 0.00 in0.0 mm
11:10 AM 89.2°F31.8°C 31.9°F-0.1°C 13% 2.0 mph E3.2 kmh E 6.0 mph9.7 kmh 30.02 in1016.6 mb 0.00 in0.0 mm 0.00 in0.0 mm 0.00 in0.0 mm
11:05 AM 89.2°F31.8°C 31.9°F-0.1°C 13% 5.0 mph NE8.0 kmh NE 6.0 mph9.7 kmh 30.02 in1016.6 mb 0.00 in0.0 mm 0.00 in0.0 mm 0.00 in0.0 mm
11:00 AM 89.2°F31.8°C 31.9°F-0.1°C 13% Calm Calm 5.0 mph8.0 kmh 30.02 in1016.6 mb 0.00 in0.0 mm 0.00 in0.0 mm 0.00 in0.0 mm
10:55 AM 89.2°F31.8°C 31.9°F-0.1°C 13% Calm Calm 5.0 mph8.0 kmh 29.99 in1015.6 mb 0.00 in0.0 mm 0.00 in0.0 mm 0.00 in0.0 mm
10:50 AM 89.2°F31.8°C 31.9°F-0.1°C 13% 5.0 mph ENE8.0 kmh ENE 6.0 mph9.7 kmh 29.99 in1015.6 mb 0.00 in0.0 mm 0.00 in0.0 mm 0.00 in0.0 mm
10:45 AM 88.8°F31.6°C 31.6°F-0.2°C 13% 3.0 mph SE4.8 kmh SE 5.0 mph8.0 kmh 30.02 in1016.6 mb 0.00 in0.0 mm 0.00 in0.0 mm 0.00 in0.0 mm
10:40 AM 88.7°F31.5°C 31.5°F-0.3°C 13% 4.0 mph ESE6.4 kmh ESE 5.0 mph8.0 kmh 30.02 in1016.6 mb 0.00 in0.0 mm 0.00 in0.0 mm 0.00 in0.0 mm
10:35 AM 88.7°F31.5°C 31.5°F-0.3°C 13% Calm Calm 4.0 mph6.4 kmh 30.02 in1016.6 mb 0.00 in0.0 mm 0.00 in0.0 mm 0.00 in0.0 mm
10:30 AM 88.3°F31.3°C 31.2°F-0.4°C 13% Calm Calm 5.0 mph8.0 kmh 30.02 in1016.6 mb 0.00 in0.0 mm 0.00 in0.0 mm 0.00 in0.0 mm
10:25 AM 87.9°F31.1°C 30.9°F-0.6°C 13% 4.0 mph E6.4 kmh E 6.0 mph9.7 kmh 30.02 in1016.6 mb 0.00 in0.0 mm 0.00 in0.0 mm 0.00 in0.0 mm
10:20 AM 87.9°F31.1°C 30.9°F-0.6°C 13% 5.0 mph E8.0 kmh E 8.0 mph12.9 kmh 30.02 in1016.6 mb 0.00 in0.0 mm 0.00 in0.0 mm 0.00 in0.0 mm
10:15 AM 87.8°F31.0°C 30.8°F-0.7°C 13% 4.0 mph SSW6.4 kmh SSW 5.0 mph8.0 kmh 30.02 in1016.6 mb 0.00 in0.0 mm 0.00 in0.0 mm 0.00 in0.0 mm
10:10 AM 87.8°F31.0°C 30.8°F-0.7°C 13% 2.0 mph S3.2 kmh S 6.0 mph9.7 kmh 30.02 in1016.6 mb 0.00 in0.0 mm 0.00 in0.0 mm 0.00 in0.0 mm
10:05 AM 87.9°F31.1°C 30.9°F-0.6°C 13% 4.0 mph E6.4 kmh E 7.0 mph11.3 kmh 30.02 in1016.6 mb 0.00 in0.0 mm 0.00 in0.0 mm 0.00 in0.0 mm
10:00 AM 87.9°F31.1°C 30.9°F-0.6°C 13% 3.0 mph ESE4.8 kmh ESE 5.0 mph8.0 kmh 30.02 in1016.6 mb 0.00 in0.0 mm 0.00 in0.0 mm 0.00 in0.0 mm
09:55 AM 88.1°F31.2°C 31.0°F-0.6°C 13% 6.0 mph SE9.7 kmh SE 6.0 mph9.7 kmh 30.02 in1016.6 mb 0.00 in0.0 mm 0.00 in0.0 mm 0.00 in0.0 mm
09:50 AM 88.1°F31.2°C 31.0°F-0.6°C 13% 4.0 mph SE6.4 kmh SE 5.0 mph8.0 kmh 30.02 in1016.6 mb 0.00 in0.0 mm 0.00 in0.0 mm 0.00 in0.0 mm
09:45 AM 87.8°F31.0°C 30.8°F-0.7°C 13% 2.0 mph E3.2 kmh E 5.0 mph8.0 kmh 30.02 in1016.6 mb 0.00 in0.0 mm 0.00 in0.0 mm 0.00 in0.0 mm
09:40 AM 87.8°F31.0°C 30.8°F-0.7°C 13% 3.0 mph E4.8 kmh E 6.0 mph9.7 kmh 29.99 in1015.6 mb 0.00 in0.0 mm 0.00 in0.0 mm 0.00 in0.0 mm
09:35 AM 87.6°F30.9°C 30.6°F-0.8°C 13% 2.0 mph SE3.2 kmh SE 6.0 mph9.7 kmh 29.99 in1015.6 mb 0.00 in0.0 mm 0.00 in0.0 mm 0.00 in0.0 mm
09:30 AM 87.6°F30.9°C 30.6°F-0.8°C 13% 4.0 mph ESE6.4 kmh ESE 6.0 mph9.7 kmh 29.99 in1015.6 mb 0.00 in0.0 mm 0.00 in0.0 mm 0.00 in0.0 mm
09:25 AM 87.8°F31.0°C 30.8°F-0.7°C 13% 2.0 mph E3.2 kmh E 4.0 mph6.4 kmh 30.02 in1016.6 mb 0.00 in0.0 mm 0.00 in0.0 mm 0.00 in0.0 mm
09:20 AM 87.4°F30.8°C 30.5°F-0.8°C 13% Calm Calm 4.0 mph6.4 kmh 30.02 in1016.6 mb 0.00 in0.0 mm 0.00 in0.0 mm 0.00 in0.0 mm
09:15 AM 87.0°F30.6°C 30.2°F-1.0°C 13% 2.0 mph ESE3.2 kmh ESE 4.0 mph6.4 kmh 30.02 in1016.6 mb 0.00 in0.0 mm 0.00 in0.0 mm 0.00 in0.0 mm
09:10 AM 86.7°F30.4°C 29.9°F-1.2°C 13% 2.0 mph E3.2 kmh E 4.0 mph6.4 kmh 30.02 in1016.6 mb 0.00 in0.0 mm 0.00 in0.0 mm 0.00 in0.0 mm
09:05 AM 85.8°F29.9°C 29.2°F-1.6°C 13% Calm Calm 4.0 mph6.4 kmh 30.02 in1016.6 mb 0.00 in0.0 mm 0.00 in0.0 mm 0.00 in0.0 mm
09:00 AM 85.4°F29.7°C 28.9°F-1.7°C 13% Calm Calm 4.0 mph6.4 kmh 30.02 in1016.6 mb 0.00 in0.0 mm 0.00 in0.0 mm 0.00 in0.0 mm
08:55 AM 85.1°F29.5°C 28.7°F-1.8°C 13% Calm Calm 3.0 mph4.8 kmh 30.02 in1016.6 mb 0.00 in0.0 mm 0.00 in0.0 mm 0.00 in0.0 mm
08:50 AM 84.5°F29.2°C 28.2°F-2.1°C 13% Calm Calm 4.0 mph6.4 kmh 30.02 in1016.6 mb 0.00 in0.0 mm 0.00 in0.0 mm 0.00 in0.0 mm
08:45 AM 84.2°F29.0°C 33.1°F0.6°C 16% 3.0 mph SW4.8 kmh SW 4.0 mph6.4 kmh 30.02 in1016.6 mb 0.00 in0.0 mm 0.00 in0.0 mm 0.00 in0.0 mm
08:40 AM 83.6°F28.7°C 32.6°F0.3°C 16% 4.0 mph W6.4 kmh W 7.0 mph11.3 kmh 30.02 in1016.6 mb 0.00 in0.0 mm 0.00 in0.0 mm 0.00 in0.0 mm
08:35 AM 83.3°F28.5°C 32.4°F0.2°C 16% 4.0 mph SSW6.4 kmh SSW 6.0 mph9.7 kmh 30.02 in1016.6 mb 0.00 in0.0 mm 0.00 in0.0 mm 0.00 in0.0 mm
08:30 AM 82.9°F28.3°C 32.1°F0.1°C 16% 5.0 mph SSW8.0 kmh SSW 7.0 mph11.3 kmh 30.02 in1016.6 mb 0.00 in0.0 mm 0.00 in0.0 mm 0.00 in0.0 mm
08:25 AM 82.5°F28.1°C 31.8°F-0.1°C 16% 4.0 mph WSW6.4 kmh WSW 5.0 mph8.0 kmh 30.02 in1016.6 mb 0.00 in0.0 mm 0.00 in0.0 mm 0.00 in0.0 mm
08:20 AM 82.4°F28.0°C 31.6°F-0.2°C 16% 4.0 mph WSW6.4 kmh WSW 6.0 mph9.7 kmh 30.02 in1016.6 mb 0.00 in0.0 mm 0.00 in0.0 mm 0.00 in0.0 mm
08:15 AM 82.0°F27.8°C 35.6°F2.0°C 19% 2.0 mph WSW3.2 kmh WSW 6.0 mph9.7 kmh 30.02 in1016.6 mb 0.00 in0.0 mm 0.00 in0.0 mm 0.00 in0.0 mm
08:10 AM 81.6°F27.6°C 35.3°F1.8°C 19% 4.0 mph W6.4 kmh W 8.0 mph12.9 kmh 30.02 in1016.6 mb 0.00 in0.0 mm 0.00 in0.0 mm 0.00 in0.0 mm
08:05 AM 81.1°F27.3°C 34.9°F1.6°C 19% 2.0 mph WSW3.2 kmh WSW 8.0 mph12.9 kmh 30.02 in1016.6 mb 0.00 in0.0 mm 0.00 in0.0 mm 0.00 in0.0 mm
08:00 AM 80.7°F27.1°C 35.9°F2.2°C 20% 4.0 mph NW6.4 kmh NW 8.0 mph12.9 kmh 30.02 in1016.6 mb 0.00 in0.0 mm 0.00 in0.0 mm 0.00 in0.0 mm
07:55 AM 80.2°F26.8°C 35.5°F1.9°C 20% 4.0 mph SW6.4 kmh SW 5.0 mph8.0 kmh 30.02 in1016.6 mb 0.00 in0.0 mm 0.00 in0.0 mm 0.00 in0.0 mm
07:50 AM 79.7°F26.5°C 36.2°F2.3°C 21% 3.0 mph W4.8 kmh W 6.0 mph9.7 kmh 30.02 in1016.6 mb 0.00 in0.0 mm 0.00 in0.0 mm 0.00 in0.0 mm
07:45 AM 78.9°F26.1°C 35.6°F2.0°C 21% 4.0 mph SW6.4 kmh SW 6.0 mph9.7 kmh 30.02 in1016.6 mb 0.00 in0.0 mm 0.00 in0.0 mm 0.00 in0.0 mm
07:40 AM 78.2°F25.7°C 36.2°F2.3°C 22% 4.0 mph WSW6.4 kmh WSW 6.0 mph9.7 kmh 30.03 in1016.9 mb 0.00 in0.0 mm 0.00 in0.0 mm 0.00 in0.0 mm
07:35 AM 77.5°F25.3°C 36.8°F2.7°C 23% 3.0 mph SSW4.8 kmh SSW 5.0 mph8.0 kmh 30.03 in1016.9 mb 0.00 in0.0 mm 0.00 in0.0 mm 0.00 in0.0 mm
07:30 AM 77.3°F25.2°C 37.7°F3.2°C 24% 5.0 mph SW8.0 kmh SW 6.0 mph9.7 kmh 30.03 in1016.9 mb 0.00 in0.0 mm 0.00 in0.0 mm 0.00 in0.0 mm
07:25 AM 77.0°F25.0°C 37.4°F3.0°C 24% 4.0 mph SW6.4 kmh SW 6.0 mph9.7 kmh 30.03 in1016.9 mb 0.00 in0.0 mm 0.00 in0.0 mm 0.00 in0.0 mm
07:20 AM 76.4°F24.7°C 39.0°F3.9°C 26% 3.0 mph SW4.8 kmh SW 5.0 mph8.0 kmh 30.03 in1016.9 mb 0.00 in0.0 mm 0.00 in0.0 mm 0.00 in0.0 mm
07:15 AM 76.1°F24.5°C 39.6°F4.2°C 27% 5.0 mph SW8.0 kmh SW 8.0 mph12.9 kmh 30.03 in1016.9 mb 0.00 in0.0 mm 0.00 in0.0 mm 0.00 in0.0 mm
07:10 AM 75.5°F24.2°C 40.1°F4.5°C 28% 2.0 mph SW3.2 kmh SW 5.0 mph8.0 kmh 30.03 in1016.9 mb 0.00 in0.0 mm 0.00 in0.0 mm 0.00 in0.0 mm
07:05 AM 75.0°F23.9°C 39.6°F4.2°C 28% 3.0 mph S4.8 kmh S 6.0 mph9.7 kmh 30.03 in1016.9 mb 0.00 in0.0 mm 0.00 in0.0 mm 0.00 in0.0 mm
07:00 AM 74.6°F23.7°C 41.1°F5.1°C 30% 4.0 mph SW6.4 kmh SW 6.0 mph9.7 kmh 30.03 in1016.9 mb 0.00 in0.0 mm 0.00 in0.0 mm 0.00 in0.0 mm
06:55 AM 74.1°F23.4°C 41.5°F5.3°C 31% 4.0 mph SW6.4 kmh SW 6.0 mph9.7 kmh 30.03 in1016.9 mb 0.00 in0.0 mm 0.00 in0.0 mm 0.00 in0.0 mm
06:50 AM 73.7°F23.2°C 41.2°F5.1°C 31% 4.0 mph W6.4 kmh W 5.0 mph8.0 kmh 30.03 in1016.9 mb 0.00 in0.0 mm 0.00 in0.0 mm 0.00 in0.0 mm
06:45 AM 73.4°F23.0°C 41.7°F5.4°C 32% 4.0 mph SW6.4 kmh SW 6.0 mph9.7 kmh 30.03 in1016.9 mb 0.00 in0.0 mm 0.00 in0.0 mm 0.00 in0.0 mm
06:40 AM 72.8°F22.7°C 41.2°F5.1°C 32% 3.0 mph SW4.8 kmh SW 5.0 mph8.0 kmh 30.03 in1016.9 mb 0.00 in0.0 mm 0.00 in0.0 mm 0.00 in0.0 mm
06:35 AM 72.5°F22.5°C 41.7°F5.4°C 33% 4.0 mph WSW6.4 kmh WSW 6.0 mph9.7 kmh 30.03 in1016.9 mb 0.00 in0.0 mm 0.00 in0.0 mm 0.00 in0.0 mm
06:30 AM 72.1°F22.3°C 41.4°F5.2°C 33% 4.0 mph SW6.4 kmh SW 6.0 mph9.7 kmh 30.03 in1016.9 mb 0.00 in0.0 mm 0.00 in0.0 mm 0.00 in0.0 mm
06:25 AM 71.7°F22.1°C 41.1°F5.1°C 33% 4.0 mph SW6.4 kmh SW 6.0 mph9.7 kmh 30.03 in1016.9 mb 0.00 in0.0 mm 0.00 in0.0 mm 0.00 in0.0 mm
06:20 AM 71.4°F21.9°C 41.5°F5.3°C 34% 2.0 mph SW3.2 kmh SW 5.0 mph8.0 kmh 30.03 in1016.9 mb 0.00 in0.0 mm 0.00 in0.0 mm 0.00 in0.0 mm
06:15 AM 71.2°F21.8°C 41.4°F5.2°C 34% 4.0 mph SW6.4 kmh SW 6.0 mph9.7 kmh 30.03 in1016.9 mb 0.00 in0.0 mm 0.00 in0.0 mm 0.00 in0.0 mm
06:10 AM 71.0°F21.7°C 41.2°F5.1°C 34% 5.0 mph WSW8.0 kmh WSW 8.0 mph12.9 kmh 30.03 in1016.9 mb 0.00 in0.0 mm 0.00 in0.0 mm 0.00 in0.0 mm
06:05 AM 70.8°F21.6°C 41.1°F5.1°C 34% 7.0 mph SW11.3 kmh SW 8.0 mph12.9 kmh 30.03 in1016.9 mb 0.00 in0.0 mm 0.00 in0.0 mm 0.00 in0.0 mm
06:00 AM 70.7°F21.5°C 40.9°F4.9°C 34% 6.0 mph SSW9.7 kmh SSW 8.0 mph12.9 kmh 30.03 in1016.9 mb 0.00 in0.0 mm 0.00 in0.0 mm 0.00 in0.0 mm
05:55 AM 70.7°F21.5°C 40.9°F4.9°C 34% 4.0 mph W6.4 kmh W 8.0 mph12.9 kmh 30.03 in1016.9 mb 0.00 in0.0 mm 0.00 in0.0 mm 0.00 in0.0 mm
05:50 AM 70.5°F21.4°C 40.7°F4.8°C 34% 6.0 mph WSW9.7 kmh WSW 7.0 mph11.3 kmh 30.03 in1016.9 mb 0.00 in0.0 mm 0.00 in0.0 mm 0.00 in0.0 mm
05:45 AM 70.3°F21.3°C 41.3°F5.2°C 35% 4.0 mph SW6.4 kmh SW 6.0 mph9.7 kmh 30.03 in1016.9 mb 0.00 in0.0 mm 0.00 in0.0 mm 0.00 in0.0 mm
05:40 AM 70.1°F21.2°C 41.2°F5.1°C 35% 3.0 mph WNW4.8 kmh WNW 6.0 mph9.7 kmh 30.03 in1016.9 mb 0.00 in0.0 mm 0.00 in0.0 mm 0.00 in0.0 mm
05:35 AM 70.1°F21.2°C 41.2°F5.1°C 35% 4.0 mph WSW6.4 kmh WSW 6.0 mph9.7 kmh 30.03 in1016.9 mb 0.00 in0.0 mm 0.00 in0.0 mm 0.00 in0.0 mm
05:30 AM 69.9°F21.1°C 41.0°F5.0°C 35% 4.0 mph WSW6.4 kmh WSW 6.0 mph9.7 kmh 30.03 in1016.9 mb 0.00 in0.0 mm 0.00 in0.0 mm 0.00 in0.0 mm
05:25 AM 69.9°F21.1°C 41.0°F5.0°C 35% 4.0 mph W6.4 kmh W 8.0 mph12.9 kmh 30.03 in1016.9 mb 0.00 in0.0 mm 0.00 in0.0 mm 0.00 in0.0 mm
05:20 AM 69.9°F21.1°C 41.0°F5.0°C 35% 3.0 mph WSW4.8 kmh WSW 5.0 mph8.0 kmh 30.03 in1016.9 mb 0.00 in0.0 mm 0.00 in0.0 mm 0.00 in0.0 mm
05:15 AM 69.9°F21.1°C 41.0°F5.0°C 35% 3.0 mph WSW4.8 kmh WSW 5.0 mph8.0 kmh 30.03 in1016.9 mb 0.00 in0.0 mm 0.00 in0.0 mm 0.00 in0.0 mm
05:10 AM 69.9°F21.1°C 41.0°F5.0°C 35% 2.0 mph WSW3.2 kmh WSW 4.0 mph6.4 kmh 30.03 in1016.9 mb 0.00 in0.0 mm 0.00 in0.0 mm 0.00 in0.0 mm
05:05 AM 70.1°F21.2°C 40.4°F4.7°C 34% 2.0 mph WSW3.2 kmh WSW 3.0 mph4.8 kmh 30.03 in1016.9 mb 0.00 in0.0 mm 0.00 in0.0 mm 0.00 in0.0 mm
05:00 AM 70.3°F21.3°C 40.6°F4.8°C 34% Calm Calm 4.0 mph6.4 kmh 30.03 in1016.9 mb 0.00 in0.0 mm 0.00 in0.0 mm 0.00 in0.0 mm
04:55 AM 70.3°F21.3°C 40.6°F4.8°C 34% 2.0 mph W3.2 kmh W 4.0 mph6.4 kmh 30.03 in1016.9 mb 0.00 in0.0 mm 0.00 in0.0 mm 0.00 in0.0 mm
04:50 AM 70.3°F21.3°C 40.6°F4.8°C 34% 2.0 mph WNW3.2 kmh WNW 4.0 mph6.4 kmh 30.03 in1016.9 mb 0.00 in0.0 mm 0.00 in0.0 mm 0.00 in0.0 mm
04:45 AM 70.5°F21.4°C 40.7°F4.8°C 34% 3.0 mph W4.8 kmh W 5.0 mph8.0 kmh 30.03 in1016.9 mb 0.00 in0.0 mm 0.00 in0.0 mm 0.00 in0.0 mm
04:40 AM 70.5°F21.4°C 40.7°F4.8°C 34% 3.0 mph WSW4.8 kmh WSW 6.0 mph9.7 kmh 30.00 in1015.9 mb 0.00 in0.0 mm 0.00 in0.0 mm 0.00 in0.0 mm
04:35 AM 70.5°F21.4°C 40.7°F4.8°C 34% 4.0 mph WSW6.4 kmh WSW 5.0 mph8.0 kmh 30.00 in1015.9 mb 0.00 in0.0 mm 0.00 in0.0 mm 0.00 in0.0 mm
04:30 AM 70.5°F21.4°C 40.7°F4.8°C 34% 4.0 mph WSW6.4 kmh WSW 6.0 mph9.7 kmh 30.00 in1015.9 mb 0.00 in0.0 mm 0.00 in0.0 mm 0.00 in0.0 mm
04:25 AM 70.5°F21.4°C 40.7°F4.8°C 34% 4.0 mph WSW6.4 kmh WSW 7.0 mph11.3 kmh 30.00 in1015.9 mb 0.00 in0.0 mm 0.00 in0.0 mm 0.00 in0.0 mm
04:20 AM 70.5°F21.4°C 40.7°F4.8°C 34% 3.0 mph W4.8 kmh W 5.0 mph8.0 kmh 30.00 in1015.9 mb 0.00 in0.0 mm 0.00 in0.0 mm 0.00 in0.0 mm
04:15 AM 70.5°F21.4°C 40.7°F4.8°C 34% 3.0 mph SW4.8 kmh SW 6.0 mph9.7 kmh 30.00 in1015.9 mb 0.00 in0.0 mm 0.00 in0.0 mm 0.00 in0.0 mm
04:10 AM 70.5°F21.4°C 41.5°F5.3°C 35% 4.0 mph SSW6.4 kmh SSW 6.0 mph9.7 kmh 30.00 in1015.9 mb 0.00 in0.0 mm 0.00 in0.0 mm 0.00 in0.0 mm
04:05 AM 70.5°F21.4°C 41.5°F5.3°C 35% 3.0 mph SW4.8 kmh SW 8.0 mph12.9 kmh 30.00 in1015.9 mb 0.00 in0.0 mm 0.00 in0.0 mm 0.00 in0.0 mm
04:00 AM 70.3°F21.3°C 42.1°F5.6°C 36% 3.0 mph WSW4.8 kmh WSW 8.0 mph12.9 kmh 30.00 in1015.9 mb 0.00 in0.0 mm 0.00 in0.0 mm 0.00 in0.0 mm
03:55 AM 70.1°F21.2°C 41.9°F5.5°C 36% 4.0 mph SW6.4 kmh SW 6.0 mph9.7 kmh 30.00 in1015.9 mb 0.00 in0.0 mm 0.00 in0.0 mm 0.00 in0.0 mm
03:50 AM 70.1°F21.2°C 41.9°F5.5°C 36% 4.0 mph SW6.4 kmh SW 6.0 mph9.7 kmh 30.00 in1015.9 mb 0.00 in0.0 mm 0.00 in0.0 mm 0.00 in0.0 mm
03:45 AM 70.3°F21.3°C 42.1°F5.6°C 36% 4.0 mph SW6.4 kmh SW 8.0 mph12.9 kmh 30.00 in1015.9 mb 0.00 in0.0 mm 0.00 in0.0 mm 0.00 in0.0 mm
03:40 AM 70.3°F21.3°C 42.1°F5.6°C 36% 4.0 mph SW6.4 kmh SW 8.0 mph12.9 kmh 30.00 in1015.9 mb 0.00 in0.0 mm 0.00 in0.0 mm 0.00 in0.0 mm
03:35 AM 70.3°F21.3°C 42.1°F5.6°C 36% 4.0 mph SW6.4 kmh SW 7.0 mph11.3 kmh 30.00 in1015.9 mb 0.00 in0.0 mm 0.00 in0.0 mm 0.00 in0.0 mm
03:30 AM 70.5°F21.4°C 42.2°F5.7°C 36% 4.0 mph SW6.4 kmh SW 7.0 mph11.3 kmh 30.00 in1015.9 mb 0.00 in0.0 mm 0.00 in0.0 mm 0.00 in0.0 mm
03:25 AM 70.5°F21.4°C 42.2°F5.7°C 36% 5.0 mph WSW8.0 kmh WSW 6.0 mph9.7 kmh 30.00 in1015.9 mb 0.00 in0.0 mm 0.00 in0.0 mm 0.00 in0.0 mm
03:20 AM 70.7°F21.5°C 41.6°F5.3°C 35% 5.0 mph SW8.0 kmh SW 7.0 mph11.3 kmh 30.00 in1015.9 mb 0.00 in0.0 mm 0.00 in0.0 mm 0.00 in0.0 mm
03:15 AM 70.8°F21.6°C 41.8°F5.4°C 35% 5.0 mph SW8.0 kmh SW 8.0 mph12.9 kmh 30.00 in1015.9 mb 0.00 in0.0 mm 0.00 in0.0 mm 0.00 in0.0 mm
03:10 AM 70.8°F21.6°C 42.5°F5.8°C 36% 4.0 mph WSW6.4 kmh WSW 5.0 mph8.0 kmh 30.00 in1015.9 mb 0.00 in0.0 mm 0.00 in0.0 mm 0.00 in0.0 mm
03:05 AM 70.7°F21.5°C 42.4°F5.8°C 36% 4.0 mph SW6.4 kmh SW 8.0 mph12.9 kmh 30.00 in1015.9 mb 0.00 in0.0 mm 0.00 in0.0 mm 0.00 in0.0 mm
03:00 AM 70.5°F21.4°C 42.9°F6.1°C 37% 4.0 mph WSW6.4 kmh WSW 8.0 mph12.9 kmh 30.00 in1015.9 mb 0.00 in0.0 mm 0.00 in0.0 mm 0.00 in0.0 mm
02:55 AM 70.1°F21.2°C 43.3°F6.3°C 38% 4.0 mph SW6.4 kmh SW 6.0 mph9.7 kmh 30.00 in1015.9 mb 0.00 in0.0 mm 0.00 in0.0 mm 0.00 in0.0 mm
02:50 AM 70.1°F21.2°C 43.3°F6.3°C 38% 4.0 mph WSW6.4 kmh WSW 6.0 mph9.7 kmh 30.00 in1015.9 mb 0.00 in0.0 mm 0.00 in0.0 mm 0.00 in0.0 mm
02:45 AM 70.3°F21.3°C 42.8°F6.0°C 37% 6.0 mph WSW9.7 kmh WSW 8.0 mph12.9 kmh 30.00 in1015.9 mb 0.00 in0.0 mm 0.00 in0.0 mm 0.00 in0.0 mm
02:40 AM 70.7°F21.5°C 42.4°F5.8°C 36% 3.0 mph SW4.8 kmh SW 5.0 mph8.0 kmh 30.00 in1015.9 mb 0.00 in0.0 mm 0.00 in0.0 mm 0.00 in0.0 mm
02:35 AM 70.7°F21.5°C 42.4°F5.8°C 36% 4.0 mph WSW6.4 kmh WSW 7.0 mph11.3 kmh 30.00 in1015.9 mb 0.00 in0.0 mm 0.00 in0.0 mm 0.00 in0.0 mm
02:30 AM 70.8°F21.6°C 42.5°F5.8°C 36% 4.0 mph WSW6.4 kmh WSW 6.0 mph9.7 kmh 30.00 in1015.9 mb 0.00 in0.0 mm 0.00 in0.0 mm 0.00 in0.0 mm
02:25 AM 70.8°F21.6°C 42.5°F5.8°C 36% 3.0 mph SW4.8 kmh SW 7.0 mph11.3 kmh 30.00 in1015.9 mb 0.00 in0.0 mm 0.00 in0.0 mm 0.00 in0.0 mm
02:20 AM 71.0°F21.7°C 42.7°F5.9°C 36% 2.0 mph WSW3.2 kmh WSW 6.0 mph9.7 kmh 30.00 in1015.9 mb 0.00 in0.0 mm 0.00 in0.0 mm 0.00 in0.0 mm
02:15 AM 71.2°F21.8°C 42.1°F5.6°C 35% 4.0 mph W6.4 kmh W 7.0 mph11.3 kmh 30.00 in1015.9 mb 0.00 in0.0 mm 0.00 in0.0 mm 0.00 in0.0 mm
02:10 AM 71.2°F21.8°C 42.1°F5.6°C 35% 4.0 mph WSW6.4 kmh WSW 7.0 mph11.3 kmh 30.00 in1015.9 mb 0.00 in0.0 mm 0.00 in0.0 mm 0.00 in0.0 mm
02:05 AM 71.2°F21.8°C 42.1°F5.6°C 35% 5.0 mph SW8.0 kmh SW 8.0 mph12.9 kmh 30.00 in1015.9 mb 0.00 in0.0 mm 0.00 in0.0 mm 0.00 in0.0 mm
02:00 AM 71.2°F21.8°C 42.1°F5.6°C 35% 7.0 mph WSW11.3 kmh WSW 10.0 mph16.1 kmh 30.00 in1015.9 mb 0.00 in0.0 mm 0.00 in0.0 mm 0.00 in0.0 mm
01:55 AM 71.0°F21.7°C 42.7°F5.9°C 36% 5.0 mph SW8.0 kmh SW 8.0 mph12.9 kmh 30.00 in1015.9 mb 0.00 in0.0 mm 0.00 in0.0 mm 0.00 in0.0 mm
01:50 AM 70.8°F21.6°C 43.2°F6.2°C 37% 5.0 mph SW8.0 kmh SW 8.0 mph12.9 kmh 30.00 in1015.9 mb 0.00 in0.0 mm 0.00 in0.0 mm 0.00 in0.0 mm
01:45 AM 71.0°F21.7°C 43.4°F6.3°C 37% 4.0 mph WSW6.4 kmh WSW 8.0 mph12.9 kmh 30.00 in1015.9 mb 0.00 in0.0 mm 0.00 in0.0 mm 0.00 in0.0 mm
01:40 AM 71.2°F21.8°C 42.9°F6.1°C 36% 4.0 mph WSW6.4 kmh WSW 5.0 mph8.0 kmh 30.00 in1015.9 mb 0.00 in0.0 mm 0.00 in0.0 mm 0.00 in0.0 mm
01:35 AM 71.4°F21.9°C 43.0°F6.1°C 36% 5.0 mph WSW8.0 kmh WSW 6.0 mph9.7 kmh 30.00 in1015.9 mb 0.00 in0.0 mm 0.00 in0.0 mm 0.00 in0.0 mm
01:30 AM 71.4°F21.9°C 43.0°F6.1°C 36% 4.0 mph WSW6.4 kmh WSW 6.0 mph9.7 kmh 30.00 in1015.9 mb 0.00 in0.0 mm 0.00 in0.0 mm 0.00 in0.0 mm
01:25 AM 71.4°F21.9°C 43.0°F6.1°C 36% 4.0 mph WSW6.4 kmh WSW 6.0 mph9.7 kmh 30.00 in1015.9 mb 0.00 in0.0 mm 0.00 in0.0 mm 0.00 in0.0 mm
01:20 AM 71.6°F22.0°C 43.2°F6.2°C 36% 3.0 mph SW4.8 kmh SW 7.0 mph11.3 kmh 30.00 in1015.9 mb 0.00 in0.0 mm 0.00 in0.0 mm 0.00 in0.0 mm
01:15 AM 71.6°F22.0°C 43.2°F6.2°C 36% 4.0 mph SW6.4 kmh SW 8.0 mph12.9 kmh 30.00 in1015.9 mb 0.00 in0.0 mm 0.00 in0.0 mm 0.00 in0.0 mm
01:10 AM 71.6°F22.0°C 43.2°F6.2°C 36% 4.0 mph SW6.4 kmh SW 8.0 mph12.9 kmh 30.00 in1015.9 mb 0.00 in0.0 mm 0.00 in0.0 mm 0.00 in0.0 mm
01:05 AM 71.6°F22.0°C 43.2°F6.2°C 36% 4.0 mph WSW6.4 kmh WSW 10.0 mph16.1 kmh 30.00 in1015.9 mb 0.00 in0.0 mm 0.00 in0.0 mm 0.00 in0.0 mm
01:00 AM 71.7°F22.1°C 43.3°F6.3°C 36% 5.0 mph WSW8.0 kmh WSW 8.0 mph12.9 kmh 30.00 in1015.9 mb 0.00 in0.0 mm 0.00 in0.0 mm 0.00 in0.0 mm
12:55 AM 71.7°F22.1°C 43.3°F6.3°C 36% 5.0 mph WSW8.0 kmh WSW 7.0 mph11.3 kmh 30.00 in1015.9 mb 0.00 in0.0 mm 0.00 in0.0 mm 0.00 in0.0 mm
12:50 AM 71.7°F22.1°C 43.3°F6.3°C 36% 5.0 mph W8.0 kmh W 8.0 mph12.9 kmh 30.00 in1015.9 mb 0.00 in0.0 mm 0.00 in0.0 mm 0.00 in0.0 mm
12:45 AM 71.9°F22.2°C 43.5°F6.4°C 36% 5.0 mph WSW8.0 kmh WSW 8.0 mph12.9 kmh 30.00 in1015.9 mb 0.00 in0.0 mm 0.00 in0.0 mm 0.00 in0.0 mm
12:40 AM 71.9°F22.2°C 42.8°F6.0°C 35% 6.0 mph SW9.7 kmh SW 8.0 mph12.9 kmh 30.03 in1016.9 mb 0.00 in0.0 mm 0.00 in0.0 mm 0.00 in0.0 mm
12:35 AM 71.9°F22.2°C 43.5°F6.4°C 36% 5.0 mph WSW8.0 kmh WSW 8.0 mph12.9 kmh 30.03 in1016.9 mb 0.00 in0.0 mm 0.00 in0.0 mm 0.00 in0.0 mm
12:30 AM 71.9°F22.2°C 43.5°F6.4°C 36% 6.0 mph WSW9.7 kmh WSW 8.0 mph12.9 kmh 30.03 in1016.9 mb 0.00 in0.0 mm 0.00 in0.0 mm 0.00 in0.0 mm
12:25 AM 71.7°F22.1°C 44.0°F6.7°C 37% 4.0 mph WSW6.4 kmh WSW 7.0 mph11.3 kmh 30.03 in1016.9 mb 0.00 in0.0 mm 0.00 in0.0 mm 0.00 in0.0 mm
12:20 AM 71.7°F22.1°C 44.0°F6.7°C 37% 4.0 mph WSW6.4 kmh WSW 6.0 mph9.7 kmh 30.03 in1016.9 mb 0.00 in0.0 mm 0.00 in0.0 mm 0.00 in0.0 mm
12:15 AM 71.9°F22.2°C 44.2°F6.8°C 37% 4.0 mph W6.4 kmh W 8.0 mph12.9 kmh 30.03 in1016.9 mb 0.00 in0.0 mm 0.00 in0.0 mm 0.00 in0.0 mm
12:10 AM 71.9°F22.2°C 44.2°F6.8°C 37% 4.0 mph W6.4 kmh W 6.0 mph9.7 kmh 30.03 in1016.9 mb 0.00 in0.0 mm 0.00 in0.0 mm 0.00 in0.0 mm
12:05 AM 71.9°F22.2°C 44.2°F6.8°C 37% 3.0 mph WSW4.8 kmh WSW 6.0 mph9.7 kmh 30.03 in1016.9 mb 0.00 in0.0 mm 0.00 in0.0 mm 0.00 in0.0 mm
12:00 AM 72.1°F22.3°C 43.6°F6.4°C 36% 4.0 mph W6.4 kmh W 7.0 mph11.3 kmh 30.03 in1016.9 mb 0.00 in0.0 mm 0.00 in0.0 mm 0.00 in0.0 mm